Time;durP1;ratioP1;P1;durP2;ratioP2;P2;SDS_P1;SDS_P2;PMS_P1;PMS_P2;Temp;Humidity;BMP_temperature;BMP_pressure;BME280_temperature;BME280_humidity;BME280_pressure;Samples;Min_cycle;Max_cycle;Signal;HPM_P1;HPM_P2
2023/08/04 00:01:59;;;;;;;7.10;4.63;;;;;;;;;;4992427;28;20785;-50
2023/08/04 00:04:26;;;;;;;4.70;2.13;;;18.90;99.90;;;;;;4992019;28;20452;-49
2023/08/04 00:06:53;;;;;;;2.13;1.57;;;19.30;99.90;;;;;;4991753;28;20438;-49
2023/08/04 00:09:20;;;;;;;2.40;1.70;;;18.90;99.90;;;;;;4991886;28;20492;-49
2023/08/04 00:11:47;;;;;;;2.80;1.70;;;19.00;99.90;;;;;;4992016;28;20437;-49
2023/08/04 00:14:14;;;;;;;3.20;1.90;;;19.10;99.90;;;;;;4990498;28;20476;-50
2023/08/04 00:16:41;;;;;;;2.47;1.60;;;19.10;99.90;;;;;;4991467;28;20425;-49
2023/08/04 00:19:08;;;;;;;3.47;1.80;;;19.30;99.90;;;;;;4991831;28;20811;-49
2023/08/04 00:21:34;;;;;;;2.40;1.73;;;19.10;99.90;;;;;;4991852;28;20441;-50
2023/08/04 00:24:01;;;;;;;2.80;1.80;;;19.10;99.90;;;;;;4991820;28;20473;-50
2023/08/04 00:26:29;;;;;;;4.30;2.10;;;19.10;99.90;;;;;;4991797;28;20872;-49
2023/08/04 00:28:55;;;;;;;5.00;1.70;;;19.20;99.90;;;;;;4991411;28;20477;-50
2023/08/04 00:31:22;;;;;;;1.97;1.60;;;19.20;99.90;;;;;;4991845;28;20435;-49
2023/08/04 00:33:48;;;;;;;4.40;2.00;;;19.50;99.90;;;;;;4991919;28;20998;-50
2023/08/04 00:36:16;;;;;;;2.10;1.80;;;19.20;99.90;;;;;;4991956;28;20441;-50
2023/08/04 00:38:42;;;;;;;2.03;1.77;;;19.20;99.90;;;;;;4991534;28;20838;-50
2023/08/04 00:41:10;;;;;;;5.70;2.00;;;19.30;99.90;;;;;;4990501;28;20464;-49
2023/08/04 00:43:38;;;;;;;2.90;1.93;;;19.20;99.90;;;;;;4990427;28;20478;-50
2023/08/04 00:46:05;;;;;;;4.03;1.73;;;19.20;99.90;;;;;;4991756;28;20441;-49
2023/08/04 00:48:33;;;;;;;2.57;2.27;;;19.00;99.90;;;;;;4991528;28;20481;-49
2023/08/04 00:51:00;;;;;;;6.27;1.80;;;19.20;99.90;;;;;;4991919;28;20842;-49
2023/08/04 00:53:26;;;;;;;5.30;2.10;;;19.10;99.90;;;;;;4991805;28;20823;-48
2023/08/04 00:55:53;;;;;;;3.77;1.87;;;19.30;99.90;;;;;;4991920;28;20452;-49
2023/08/04 00:58:20;;;;;;;5.30;2.70;;;19.20;99.90;;;;;;4991399;28;20457;-49
2023/08/04 01:00:50;;;;;;;3.00;2.03;;;19.40;99.90;;;;;;4990386;28;20446;-49
2023/08/04 01:03:17;;;;;;;5.37;2.10;;;19.40;99.90;;;;;;4990186;28;20473;-49
2023/08/04 01:05:57;;;;;;;2.70;1.90;;;19.20;99.90;;;;;;4991590;28;20444;-50
2023/08/04 01:08:27;;;;;;;2.60;2.40;;;19.30;99.90;;;;;;4993953;28;20488;-49
2023/08/04 01:10:56;;;;;;;3.37;2.60;;;19.20;99.90;;;;;;4995057;28;20967;-49
2023/08/04 01:13:25;;;;;;;6.70;2.50;;;19.20;99.90;;;;;;4994933;28;20453;-49
2023/08/04 01:15:54;;;;;;;3.67;2.53;;;19.20;99.90;;;;;;4994907;28;20429;-49
2023/08/04 01:18:21;;;;;;;2.80;2.47;;;19.20;99.90;;;;;;4994451;28;20476;-49
2023/08/04 01:20:48;;;;;;;5.10;2.87;;;19.20;99.90;;;;;;4994807;28;20406;-49
2023/08/04 01:23:17;;;;;;;3.00;2.70;;;19.10;99.90;;;;;;4995012;28;20481;-49
2023/08/04 01:25:43;;;;;;;4.27;2.43;;;19.00;99.90;;;;;;4993436;28;20423;-49
2023/08/04 01:28:14;;;;;;;5.67;2.47;;;19.00;99.90;;;;;;4993117;28;20484;-48
2023/08/04 01:30:44;;;;;;;4.40;2.40;;;19.60;99.90;;;;;;4994744;28;20441;-49
2023/08/04 01:33:11;;;;;;;7.60;2.70;;;19.20;99.90;;;;;;4993043;28;20980;-49
2023/08/04 01:35:37;;;;;;;5.00;2.67;;;19.70;99.90;;;;;;4994734;28;20443;-48
2023/08/04 01:38:04;;;;;;;7.67;2.60;;;19.00;99.90;;;;;;4992928;28;20671;-49
2023/08/04 01:40:32;;;;;;;4.40;2.93;;;19.30;99.90;;;;;;4994382;28;20805;-48
2023/08/04 01:42:59;;;;;;;3.27;2.20;;;19.00;99.90;;;;;;4994279;28;20524;-49
2023/08/04 01:45:25;;;;;;;2.63;2.20;;;19.50;99.90;;;;;;4993552;28;20508;-49
2023/08/04 01:47:52;;;;;;;4.93;2.90;;;19.30;99.90;;;;;;4993995;28;20935;-49
2023/08/04 01:50:19;;;;;;;3.10;2.47;;;19.20;99.90;;;;;;4994542;28;20441;-49
2023/08/04 01:52:45;;;;;;;5.80;2.67;;;19.20;99.90;;;;;;4993482;28;20493;-49
2023/08/04 01:55:12;;;;;;;15.33;4.47;;;19.30;99.90;;;;;;4993670;28;20463;-49
2023/08/04 01:57:40;;;;;;;3.97;2.40;;;19.40;99.90;;;;;;4994926;28;20522;-49
2023/08/04 02:00:08;;;;;;;3.40;2.33;;;19.40;99.90;;;;;;4994674;28;20664;-49
2023/08/04 02:02:41;;;;;;;4.37;2.77;;;19.20;99.90;;;;;;4995024;28;20430;-49
2023/08/04 02:05:08;;;;;;;4.50;3.10;;;19.40;99.90;;;;;;4994445;28;20450;-49
2023/08/04 02:07:35;;;;;;;4.37;2.90;;;19.30;99.90;;;;;;4992787;28;20738;-49
2023/08/04 02:10:01;;;;;;;6.30;3.00;;;19.30;99.90;;;;;;4994202;28;20484;-49
2023/08/04 02:12:28;;;;;;;8.23;2.70;;;19.50;99.90;;;;;;4993957;28;20437;-49
2023/08/04 02:14:57;;;;;;;4.13;3.00;;;19.30;99.90;;;;;;4993729;28;20454;-49
2023/08/04 02:17:23;;;;;;;6.43;3.30;;;19.60;99.90;;;;;;4993452;28;20874;-49
2023/08/04 02:19:50;;;;;;;4.60;3.27;;;19.30;99.90;;;;;;4992873;28;20505;-48
2023/08/04 02:22:17;;;;;;;4.90;3.13;;;19.40;99.90;;;;;;4993859;28;20443;-49
2023/08/04 02:24:43;;;;;;;5.40;3.43;;;19.20;99.90;;;;;;4993535;28;20706;-49
2023/08/04 02:27:10;;;;;;;4.20;3.80;;;19.10;99.90;;;;;;4991942;28;20455;-48
2023/08/04 02:29:36;;;;;;;8.30;3.37;;;19.40;99.90;;;;;;4993527;28;20814;-48
2023/08/04 02:32:05;;;;;;;6.70;4.27;;;19.20;99.90;;;;;;4993583;28;20941;-49
2023/08/04 02:34:31;;;;;;;5.83;3.20;;;19.30;99.90;;;;;;4993534;28;20476;-49
2023/08/04 02:36:58;;;;;;;7.37;3.93;;;19.50;99.90;;;;;;4993018;28;20444;-49
2023/08/04 02:39:25;;;;;;;6.33;3.57;;;19.20;99.90;;;;;;4993349;28;20437;-48
2023/08/04 02:41:51;;;;;;;9.33;3.27;;;19.20;99.90;;;;;;4993317;28;20789;-50
2023/08/04 02:44:18;;;;;;;5.17;2.83;;;19.30;99.90;;;;;;4993209;28;20473;-49
2023/08/04 02:46:45;;;;;;;5.77;3.40;;;19.50;99.90;;;;;;4991614;28;20452;-49
2023/08/04 02:49:13;;;;;;;5.77;3.30;;;19.60;99.90;;;;;;4993179;28;20477;-49
2023/08/04 02:51:39;;;;;;;7.67;3.60;;;19.00;99.90;;;;;;4991748;28;20446;-49
2023/08/04 02:54:06;;;;;;;4.80;3.53;;;19.30;99.90;;;;;;4993066;28;20461;-49
2023/08/04 02:56:32;;;;;;;4.10;2.97;;;19.20;99.90;;;;;;4991577;28;20474;-49
2023/08/04 02:58:59;;;;;;;6.13;3.20;;;18.90;99.90;;;;;;4991566;28;20449;-49
2023/08/04 03:01:25;;;;;;;8.20;3.50;;;19.20;99.90;;;;;;4992983;28;20440;-49
2023/08/04 03:03:52;;;;;;;10.67;3.27;;;19.20;99.90;;;;;;4991488;28;20461;-49
2023/08/04 03:06:20;;;;;;;5.83;3.80;;;19.60;99.90;;;;;;4992784;28;20444;-49
2023/08/04 03:08:46;;;;;;;4.80;2.97;;;19.70;99.90;;;;;;4992897;28;20480;-49
2023/08/04 03:11:13;;;;;;;5.90;3.60;;;19.10;99.90;;;;;;4992631;28;20437;-49
2023/08/04 03:13:40;;;;;;;7.87;4.70;;;19.20;99.90;;;;;;4992639;28;20990;-50
2023/08/04 03:16:06;;;;;;;5.57;3.67;;;19.10;99.90;;;;;;4991429;28;20449;-49
2023/08/04 03:18:33;;;;;;;6.27;3.80;;;19.20;99.90;;;;;;4992445;28;20434;-49
2023/08/04 03:21:02;;;;;;;5.63;3.70;;;19.40;99.90;;;;;;4992688;28;20445;-48
2023/08/04 03:23:30;;;;;;;3.80;3.40;;;19.20;99.90;;;;;;4992419;28;20528;-48
2023/08/04 03:25:57;;;;;;;5.47;3.50;;;19.30;99.90;;;;;;4992535;28;20745;-49
2023/08/04 03:28:24;;;;;;;7.80;4.07;;;19.50;99.90;;;;;;4990803;28;20443;-49
2023/08/04 03:30:50;;;;;;;6.80;3.53;;;19.60;99.90;;;;;;4992284;28;20438;-49
2023/08/04 03:33:17;;;;;;;6.90;3.80;;;18.90;99.90;;;;;;4992308;28;20459;-49
2023/08/04 03:35:43;;;;;;;8.80;3.37;;;19.20;99.90;;;;;;4992308;28;20468;-49
2023/08/04 03:38:11;;;;;;;8.77;3.63;;;19.20;99.90;;;;;;4991935;28;20481;-49
2023/08/04 03:40:39;;;;;;;8.53;4.17;;;19.20;99.90;;;;;;4992390;28;20532;-49
2023/08/04 03:45:33;;;;;;;17.40;5.63;;;19.00;99.90;;;;;;4991069;28;20524;-53
2023/08/04 03:48:00;;;;;;;10.40;4.70;;;19.10;99.90;;;;;;4992340;28;20966;-53
2023/08/04 03:50:27;;;;;;;10.33;4.80;;;18.90;99.90;;;;;;4992632;28;20536;-52
2023/08/04 03:52:53;;;;;;;7.47;4.13;;;19.00;99.90;;;;;;4992567;28;20436;-54
2023/08/04 03:55:20;;;;;;;7.63;4.90;;;;;;;;;;4992416;28;20486;-55
2023/08/04 03:57:48;;;;;;;8.80;4.23;;;18.90;99.90;;;;;;4992096;28;20441;-53
2023/08/04 04:00:15;;;;;;;27.30;5.20;;;18.90;99.90;;;;;;4992703;28;20441;-55
2023/08/04 04:02:41;;;;;;;7.60;4.67;;;18.80;99.90;;;;;;4992572;28;20439;-54
2023/08/04 04:05:09;;;;;;;15.40;4.40;;;;;;;;;;4992287;28;20488;-54
2023/08/04 04:07:35;;;;;;;7.30;4.60;;;18.90;99.90;;;;;;4991955;28;20928;-53
2023/08/04 04:10:02;;;;;;;9.33;4.13;;;;;;;;;;4992419;28;20576;-53
2023/08/04 04:12:29;;;;;;;9.37;4.20;;;19.00;99.90;;;;;;4992566;28;20442;-54
2023/08/04 04:14:57;;;;;;;9.80;4.90;;;18.70;99.90;;;;;;4992291;28;20464;-53
2023/08/04 04:17:24;;;;;;;10.77;4.60;;;;;;;;;;5007163;28;20457;-53
2023/08/04 04:19:51;;;;;;;8.83;4.23;;;;;;;;;;4992365;28;20861;-55
2023/08/04 04:22:17;;;;;;;10.50;4.60;;;18.80;99.90;;;;;;4992396;28;20805;-53
2023/08/04 04:24:44;;;;;;;7.23;4.03;;;;;;;;;;4992439;28;20456;-53
2023/08/04 04:27:11;;;;;;;6.73;4.57;;;18.90;99.90;;;;;;4992046;28;20947;-53
2023/08/04 04:29:39;;;;;;;11.53;5.60;;;;;;;;;;4992168;28;20470;-54
2023/08/04 04:32:08;;;;;;;8.10;4.40;;;19.10;99.90;;;;;;4992256;28;20963;-54
2023/08/04 04:34:35;;;;;;;9.90;5.00;;;18.80;99.90;;;;;;4992163;28;20488;-53
2023/08/04 04:37:01;;;;;;;8.20;4.70;;;19.00;99.90;;;;;;4992283;28;20826;-55
2023/08/04 04:39:28;;;;;;;7.80;4.40;;;19.00;99.90;;;;;;4992144;28;20437;-54
2023/08/04 04:41:54;;;;;;;9.57;5.03;;;19.10;99.90;;;;;;4992979;28;20441;-53
2023/08/04 04:44:22;;;;;;;17.57;6.03;;;;;;;;;;4995527;28;20474;-55
2023/08/04 04:46:48;;;;;;;17.40;7.20;;;19.10;99.90;;;;;;4995491;28;20472;-56
2023/08/04 04:49:16;;;;;;;16.00;5.67;;;19.50;99.90;;;;;;4995648;28;20480;-54
2023/08/04 04:51:44;;;;;;;10.17;4.40;;;;;;;;;;4995625;28;20472;-53
2023/08/04 04:54:10;;;;;;;16.70;5.30;;;19.40;99.90;;;;;;4995637;28;20476;-53
2023/08/04 04:56:38;;;;;;;12.07;4.80;;;19.20;99.90;;;;;;4995393;28;20964;-56
2023/08/04 04:59:05;;;;;;;7.43;4.17;;;19.20;99.90;;;;;;4995550;28;20437;-53
2023/08/04 05:01:32;;;;;;;8.07;4.53;;;;;;;;;;4995378;28;20950;-55
2023/08/04 05:03:59;;;;;;;13.27;4.90;;;;;;;;;;4995534;28;20809;-54
2023/08/04 05:06:26;;;;;;;6.60;4.60;;;19.80;99.90;;;;;;4995577;28;20429;-53
2023/08/04 05:08:53;;;;;;;7.70;4.50;;;19.50;99.90;;;;;;4995120;28;20446;-52
2023/08/04 05:11:20;;;;;;;9.23;4.30;;;;;;;;;;4995250;28;20456;-55
2023/08/04 05:13:47;;;;;;;6.40;3.70;;;;;;;;;;4995343;28;20462;-53
2023/08/04 05:16:14;;;;;;;9.57;4.10;;;;;;;;;;4995051;28;20447;-56
2023/08/04 05:18:40;;;;;;;9.43;4.67;;;19.90;99.90;;;;;;4995267;28;20438;-54
2023/08/04 05:21:07;;;;;;;6.20;4.27;;;19.90;99.90;;;;;;5010150;28;20765;-53
2023/08/04 05:23:35;;;;;;;4.30;2.83;;;19.70;99.90;;;;;;5010142;28;20492;-55
2023/08/04 05:26:01;;;;;;;13.47;4.23;;;19.80;99.90;;;;;;4995023;28;20438;-52
2023/08/04 05:28:30;;;;;;;6.50;3.67;;;19.90;99.90;;;;;;4995266;28;20438;-54
2023/08/04 05:30:58;;;;;;;7.97;3.70;;;;;;;;;;4994848;28;20473;-54
2023/08/04 05:33:26;;;;;;;9.40;4.27;;;19.70;99.90;;;;;;4994843;28;20573;-53
2023/08/04 05:35:53;;;;;;;14.00;4.10;;;;;;;;;;4993563;28;20449;-54
2023/08/04 05:38:20;;;;;;;12.03;3.90;;;19.90;99.90;;;;;;4994576;28;20439;-54
2023/08/04 05:40:49;;;;;;;9.93;4.40;;;19.70;99.90;;;;;;4994940;28;20435;-54
2023/08/04 05:43:16;;;;;;;7.70;3.67;;;;;;;;;;4994495;28;20439;-53
2023/08/04 05:45:46;;;;;;;12.73;4.90;;;20.10;99.90;;;;;;4994743;28;20928;-55
2023/08/04 05:48:14;;;;;;;10.93;4.13;;;19.50;99.90;;;;;;4994664;28;20847;-53
2023/08/04 05:50:41;;;;;;;9.73;4.30;;;;;;;;;;4994319;28;20493;-55
2023/08/04 05:53:08;;;;;;;9.50;4.43;;;;;;;;;;4993517;28;20454;-52
2023/08/04 05:55:35;;;;;;;6.57;3.50;;;;;;;;;;4994187;28;20471;-54
2023/08/04 05:58:04;;;;;;;5.50;3.40;;;19.70;99.90;;;;;;4993907;28;20449;-52
2023/08/04 06:00:31;;;;;;;12.83;4.13;;;;;;;;;;4994228;28;20440;-55
2023/08/04 06:02:58;;;;;;;11.60;4.20;;;20.00;99.90;;;;;;4994425;28;20474;-54
2023/08/04 06:05:24;;;;;;;7.53;4.53;;;20.10;99.90;;;;;;4994730;28;20466;-54
2023/08/04 06:07:52;;;;;;;12.57;3.93;;;;;;;;;;4993956;28;20438;-54
2023/08/04 06:10:19;;;;;;;16.40;4.40;;;20.10;99.90;;;;;;4994705;28;20528;-55
2023/08/04 06:12:47;;;;;;;6.90;4.00;;;19.70;99.90;;;;;;4994384;28;20433;-53
2023/08/04 06:15:15;;;;;;;8.47;4.10;;;20.20;99.90;;;;;;4994428;28;20509;-55
2023/08/04 06:17:43;;;;;;;7.10;4.03;;;20.30;99.90;;;;;;4993802;28;20929;-53
2023/08/04 06:20:10;;;;;;;12.20;3.77;;;20.40;99.90;;;;;;4994048;28;20439;-54
2023/08/04 06:22:38;;;;;;;7.40;3.87;;;;;;;;;;4993984;28;20450;-53
2023/08/04 06:25:06;;;;;;;7.50;3.13;;;20.40;99.90;;;;;;4993989;28;20525;-53
2023/08/04 06:27:33;;;;;;;8.00;3.40;;;20.40;99.90;;;;;;4992114;28;20454;-53
2023/08/04 06:30:00;;;;;;;5.97;3.20;;;;;;;;;;4993938;28;20485;-54
2023/08/04 06:32:29;;;;;;;4.60;3.10;;;20.40;99.90;;;;;;4994116;28;20474;-55
2023/08/04 06:34:55;;;;;;;9.50;3.20;;;20.50;99.90;;;;;;4994183;28;20465;-53
2023/08/04 06:37:22;;;;;;;7.80;4.03;;;;;;;;;;4993138;28;20431;-55
2023/08/04 06:39:50;;;;;;;8.80;4.00;;;;;;;;;;4993753;28;20447;-53
2023/08/04 06:42:17;;;;;;;9.27;3.13;;;;;;;;;;4993819;28;20443;-53
2023/08/04 06:44:44;;;;;;;9.60;4.27;;;;;;;;;;4993316;28;20485;-54
2023/08/04 06:47:11;;;;;;;4.77;2.70;;;;;;;;;;4993173;28;20414;-55
2023/08/04 06:49:39;;;;;;;12.40;3.80;;;;;;;;;;4993341;28;20490;-53
2023/08/04 06:52:08;;;;;;;7.10;4.57;;;20.70;99.90;;;;;;4993588;28;20486;-55
2023/08/04 06:54:34;;;;;;;8.27;3.80;;;;;;;;;;4993257;28;20471;-53
2023/08/04 06:57:01;;;;;;;11.27;4.07;;;20.70;99.90;;;;;;4992856;28;20633;-53
2023/08/04 06:59:28;;;;;;;8.93;3.40;;;20.70;99.90;;;;;;4993503;28;20815;-53
2023/08/04 07:01:55;;;;;;;6.63;3.37;;;;;;;;;;4993120;28;20527;-54
2023/08/04 07:04:22;;;;;;;9.10;3.57;;;;;;;;;;4992890;28;20464;-53
2023/08/04 07:06:49;;;;;;;13.40;3.87;;;20.90;99.90;;;;;;4992742;28;20443;-55
2023/08/04 07:09:16;;;;;;;6.90;3.57;;;21.00;99.90;;;;;;4993319;28;20647;-52
2023/08/04 07:11:43;;;;;;;7.97;4.20;;;21.00;99.90;;;;;;4993114;28;20488;-53
2023/08/04 07:14:09;;;;;;;9.77;4.47;;;21.10;99.90;;;;;;4992838;28;20559;-53
2023/08/04 07:16:36;;;;;;;6.23;3.40;;;21.10;99.90;;;;;;4992673;28;20506;-55
2023/08/04 07:19:03;;;;;;;4.90;3.00;;;;;;;;;;4992651;28;20439;-56
2023/08/04 07:21:29;;;;;;;8.47;3.43;;;21.30;99.90;;;;;;4992805;28;20842;-54
2023/08/04 07:23:57;;;;;;;9.60;3.00;;;21.30;99.90;;;;;;4992949;28;20430;-53
2023/08/04 07:26:25;;;;;;;9.23;3.30;;;;;;;;;;4992693;28;20440;-54
2023/08/04 07:28:53;;;;;;;7.27;3.40;;;;;;;;;;4992391;28;20453;-56
2023/08/04 07:31:20;;;;;;;6.97;3.23;;;;;;;;;;4992504;28;20612;-56
2023/08/04 07:33:47;;;;;;;6.10;4.07;;;;;;;;;;4992457;28;20449;-56
2023/08/04 07:36:14;;;;;;;9.30;3.40;;;21.50;99.90;;;;;;4992604;28;20445;-54
2023/08/04 07:38:41;;;;;;;10.10;4.77;;;;;;;;;;4992112;28;20444;-53
2023/08/04 07:41:09;;;;;;;8.03;4.00;;;21.60;99.90;;;;;;4992719;28;20447;-54
2023/08/04 07:43:36;;;;;;;9.50;3.93;;;;;;;;;;4992385;28;20476;-53
2023/08/04 07:46:03;;;;;;;13.23;3.30;;;;;;;;;;4992523;28;20456;-53
2023/08/04 07:48:30;;;;;;;10.13;3.10;;;;;;;;;;4991933;28;20460;-56
2023/08/04 07:50:57;;;;;;;7.73;3.70;;;;;;;;;;4992335;28;20904;-56
2023/08/04 07:53:24;;;;;;;8.93;3.47;;;;;;;;;;4992109;28;20794;-56
2023/08/04 07:55:55;;;;;;;7.30;3.37;;;21.90;99.90;;;;;;4992357;28;20990;-55
2023/08/04 07:58:23;;;;;;;6.60;2.60;;;;;;;;;;4991840;28;20536;-56
2023/08/04 08:00:50;;;;;;;6.80;2.60;;;;;;;;;;4992281;28;20433;-56
2023/08/04 08:03:17;;;;;;;6.10;3.40;;;;;;;;;;4991985;28;20529;-56
2023/08/04 08:05:44;;;;;;;7.97;2.97;;;;;;;;;;4992398;28;20443;-57
2023/08/04 08:08:11;;;;;;;10.47;4.63;;;22.10;99.90;;;;;;4992074;28;20441;-56
2023/08/04 08:10:38;;;;;;;5.63;3.20;;;;;;;;;;5007226;28;20563;-56
2023/08/04 08:13:05;;;;;;;9.77;3.73;;;;;;;;;;5007546;28;20498;-56
2023/08/04 08:15:35;;;;;;;5.80;3.00;;;21.70;99.90;;;;;;4992104;28;20445;-56
2023/08/04 08:18:02;;;;;;;5.13;3.70;;;21.70;99.90;;;;;;4998234;28;20434;-56
2023/08/04 08:20:29;;;;;;;10.93;3.30;;;21.50;99.90;;;;;;4996221;28;20472;-57
2023/08/04 08:22:56;;;;;;;8.30;3.90;;;;;;;;;;4996088;28;20433;-57
2023/08/04 08:25:23;;;;;;;7.10;3.57;;;21.40;99.90;;;;;;4996063;28;20640;-56
2023/08/04 08:27:50;;;;;;;9.10;2.97;;;21.50;99.90;;;;;;4995335;28;20527;-58
2023/08/04 08:30:17;;;;;;;6.37;3.10;;;21.50;99.90;;;;;;4995693;28;20487;-56
2023/08/04 08:32:45;;;;;;;4.50;2.53;;;21.70;99.90;;;;;;4995600;28;20935;-56
2023/08/04 08:35:12;;;;;;;8.67;3.73;;;;;;;;;;4995530;28;20457;-56
2023/08/04 08:37:39;;;;;;;7.00;3.10;;;;;;;;;;4995304;28;20429;-58
2023/08/04 08:40:06;;;;;;;6.10;3.43;;;21.90;99.90;;;;;;4995594;28;20444;-57
2023/08/04 08:42:34;;;;;;;6.80;3.17;;;22.00;99.90;;;;;;4995830;28;20519;-57
2023/08/04 08:45:01;;;;;;;9.90;4.03;;;;;;;;;;4995682;28;20534;-56
2023/08/04 08:47:32;;;;;;;5.77;3.73;;;22.00;99.90;;;;;;4995153;28;20483;-57
2023/08/04 08:50:02;;;;;;;4.83;2.90;;;22.00;99.90;;;;;;4995721;28;21135;-57
2023/08/04 08:52:31;;;;;;;8.43;3.60;;;;;;;;;;4995422;28;20494;-56
2023/08/04 08:54:58;;;;;;;6.03;3.50;;;;;;;;;;4995296;28;20461;-56
2023/08/04 08:57:26;;;;;;;7.67;4.30;;;22.20;99.90;;;;;;4995160;28;20432;-55
2023/08/04 08:59:53;;;;;;;4.27;2.67;;;;;;;;;;4995559;28;20445;-56
2023/08/04 09:02:20;;;;;;;7.17;2.90;;;22.30;99.90;;;;;;4995346;28;20437;-56
2023/08/04 09:04:46;;;;;;;4.33;2.50;;;22.40;99.90;;;;;;4995084;28;20442;-56
2023/08/04 09:07:14;;;;;;;9.00;2.60;;;22.40;99.90;;;;;;4994878;28;20822;-56
2023/08/04 09:09:41;;;;;;;3.47;2.60;;;;;;;;;;5003567;28;20437;-55
2023/08/04 09:12:09;;;;;;;4.70;2.70;;;22.60;99.60;;;;;;5010631;28;20478;-56
2023/08/04 09:14:50;;;;;;;5.60;2.90;;;22.70;99.60;;;;;;4995555;28;20833;-56
2023/08/04 09:17:33;;;;;;;4.23;2.60;;;22.70;99.20;;;;;;4994654;28;20446;-56
2023/08/04 09:20:00;;;;;;;5.77;2.53;;;;;;;;;;4994804;28;20477;-56
2023/08/04 09:22:28;;;;;;;6.23;2.67;;;22.80;99.20;;;;;;4995006;28;20770;-57
2023/08/04 09:24:56;;;;;;;11.00;3.37;;;;;;;;;;5010306;28;20470;-56
2023/08/04 09:27:30;;;;;;;6.57;2.70;;;23.00;98.90;;;;;;4994389;28;20435;-57
2023/08/04 09:29:58;;;;;;;5.80;2.97;;;;;;;;;;4994792;28;20449;-57
2023/08/04 09:32:25;;;;;;;4.37;2.83;;;;;;;;;;4994544;28;20487;-57
2023/08/04 09:35:03;;;;;;;7.23;3.20;;;23.30;98.10;;;;;;4994828;28;20526;-56
2023/08/04 09:37:33;;;;;;;3.90;2.50;;;23.40;98.00;;;;;;4994342;28;20440;-56
2023/08/04 09:40:00;;;;;;;4.93;2.70;;;23.40;97.60;;;;;;4995032;28;20984;-56
2023/08/04 09:42:27;;;;;;;3.20;2.20;;;;;;;;;;4994876;28;20535;-56
2023/08/04 09:44:54;;;;;;;6.97;2.80;;;;;;;;;;4994704;28;20468;-57
2023/08/04 09:47:23;;;;;;;5.50;2.80;;;;;;;;;;4993975;28;20436;-57
2023/08/04 09:49:50;;;;;;;5.07;2.63;;;23.90;97.00;;;;;;4994738;28;20883;-58
2023/08/04 09:52:20;;;;;;;6.23;2.33;;;;;;;;;;4994550;28;20490;-56
2023/08/04 09:54:49;;;;;;;5.93;2.40;;;24.10;96.30;;;;;;5001820;28;20452;-57
2023/08/04 09:57:16;;;;;;;3.50;1.90;;;24.20;95.90;;;;;;4995754;28;20792;-57
2023/08/04 09:59:43;;;;;;;13.47;3.23;;;24.30;95.70;;;;;;4994569;28;20435;-58
2023/08/04 10:02:10;;;;;;;9.23;2.87;;;24.30;95.70;;;;;;4994512;28;20540;-57
2023/08/04 10:04:37;;;;;;;7.17;3.37;;;24.40;95.40;;;;;;4993009;28;20991;-56
2023/08/04 10:07:05;;;;;;;5.47;2.50;;;;;;;;;;4993581;28;20549;-57
2023/08/04 10:09:33;;;;;;;8.37;3.37;;;24.50;94.70;;;;;;4994309;28;20578;-56
2023/08/04 10:12:02;;;;;;;7.57;3.00;;;24.50;94.80;;;;;;4993769;28;20524;-56
2023/08/04 10:14:29;;;;;;;7.47;2.40;;;;;;;;;;4993648;28;20511;-57
2023/08/04 10:16:57;;;;;;;6.40;3.13;;;24.30;94.80;;;;;;4993958;28;20462;-56
2023/08/04 10:19:24;;;;;;;4.77;2.67;;;;;;;;;;4993699;28;20429;-56
2023/08/04 10:21:51;;;;;;;8.40;3.47;;;;;;;;;;4993499;28;20542;-58
2023/08/04 10:24:20;;;;;;;9.13;2.90;;;24.20;94.90;;;;;;5008897;28;20465;-58
2023/08/04 10:26:48;;;;;;;7.03;3.23;;;24.10;95.20;;;;;;4993294;28;20957;-57
2023/08/04 10:29:17;;;;;;;4.83;2.90;;;;;;;;;;4993429;28;20495;-57
2023/08/04 10:31:44;;;;;;;6.23;3.07;;;;;;;;;;4993560;28;20496;-57
2023/08/04 10:34:19;;;;;;;6.33;3.43;;;;;;;;;;4993553;28;20535;-57
2023/08/04 10:36:56;;;;;;;8.27;3.40;;;;;;;;;;4993470;28;20851;-57
2023/08/04 10:39:32;;;;;;;6.53;3.57;;;;;;;;;;4992627;28;20429;-57
2023/08/04 10:42:00;;;;;;;6.40;3.20;;;;;;;;;;4993782;28;20815;-57
2023/08/04 10:44:30;;;;;;;8.63;3.80;;;;;;;;;;5008182;28;20469;-57
2023/08/04 10:47:04;;;;;;;8.97;5.27;;;;;;;;;;4998602;28;20476;-57
2023/08/04 10:49:32;;;;;;;8.50;3.47;;;;;;;;;;4993738;28;20439;-57
2023/08/04 10:52:00;;;;;;;8.30;3.63;;;;;;;;;;4993419;28;20583;-57
2023/08/04 10:54:27;;;;;;;5.07;3.47;;;;;;;;;;4993146;28;21033;-57
2023/08/04 10:56:54;;;;;;;5.33;4.10;;;;;;;;;;4992931;28;20442;-57
2023/08/04 10:59:20;;;;;;;6.43;4.10;;;23.60;99.90;;;;;;4993001;28;20435;-56
2023/08/04 11:01:49;;;;;;;10.27;5.37;;;;;;;;;;4993133;28;20440;-57
2023/08/04 11:04:16;;;;;;;9.07;4.10;;;;;;;;;;4993124;28;20463;-57
2023/08/04 11:06:44;;;;;;;10.27;3.67;;;23.90;99.90;;;;;;4992589;28;20472;-57
2023/08/04 11:09:11;;;;;;;6.40;3.37;;;;;;;;;;4992899;28;20436;-55
2023/08/04 11:11:38;;;;;;;7.57;3.73;;;;;;;;;;4992858;28;20483;-57
2023/08/04 11:14:07;;;;;;;5.53;3.10;;;;;;;;;;4992803;28;20460;-58
2023/08/04 11:16:36;;;;;;;3.73;2.47;;;;;;;;;;4992734;28;20437;-56
2023/08/04 11:19:07;;;;;;;6.50;2.80;;;24.30;97.80;;;;;;4992551;28;20453;-60
2023/08/04 11:21:34;;;;;;;3.63;2.43;;;;;;;;;;4992664;28;20448;-57
2023/08/04 11:24:01;;;;;;;5.13;3.03;;;;;;;;;;4992673;28;20489;-57
2023/08/04 11:26:29;;;;;;;6.50;2.70;;;;;;;;;;4992745;28;20415;-57
2023/08/04 11:28:57;;;;;;;5.33;2.50;;;;;;;;;;4997063;28;20860;-56
2023/08/04 11:31:24;;;;;;;3.93;2.10;;;23.80;94.70;;;;;;4992669;28;20921;-56
2023/08/04 11:33:53;;;;;;;4.03;1.93;;;;;;;;;;4992698;28;20794;-57
2023/08/04 11:36:21;;;;;;;2.70;1.60;;;;;;;;;;4992909;28;20933;-56
2023/08/04 11:38:48;;;;;;;6.43;2.63;;;;;;;;;;4992768;28;20427;-56
2023/08/04 11:41:16;;;;;;;3.60;2.10;;;;;;;;;;4992539;28;20432;-56
2023/08/04 11:43:43;;;;;;;2.53;1.90;;;;;;;;;;4992474;28;20472;-57
2023/08/04 11:46:10;;;;;;;2.57;1.87;;;;;;;;;;4992162;28;20451;-57
2023/08/04 11:48:39;;;;;;;4.10;2.10;;;;;;;;;;5006760;28;20450;-57
2023/08/04 11:51:07;;;;;;;6.20;2.17;;;;;;;;;;4992337;28;20472;-57
2023/08/04 11:53:35;;;;;;;4.33;2.17;;;;;;;;;;4992018;28;20975;-55
2023/08/04 11:56:04;;;;;;;3.83;2.73;;;;;;;;;;4992577;28;20443;-56
2023/08/04 11:58:35;;;;;;;3.97;2.40;;;;;;;;;;4992092;28;20473;-57
2023/08/04 12:01:02;;;;;;;3.37;2.30;;;23.80;94.50;;;;;;5007157;28;20445;-59
2023/08/04 12:03:46;;;;;;;4.03;2.00;;;24.10;94.10;;;;;;4992222;28;20484;-57
2023/08/04 12:06:14;;;;;;;7.73;2.60;;;;;;;;;;4991805;28;20546;-57
2023/08/04 12:08:47;;;;;;;6.13;2.67;;;;;;;;;;5006681;28;20495;-57
2023/08/04 12:11:14;;;;;;;5.97;2.93;;;;;;;;;;4992150;28;20452;-57
2023/08/04 12:13:41;;;;;;;5.63;5.00;;;;;;;;;;4991720;28;20449;-57
2023/08/04 12:16:08;;;;;;;4.93;2.60;;;;;;;;;;4992056;28;20456;-57
2023/08/04 12:18:35;;;;;;;6.13;3.60;;;;;;;;;;4991734;28;20444;-57
2023/08/04 12:21:03;;;;;;;5.33;2.93;;;;;;;;;;4997519;28;20437;-57
2023/08/04 12:23:30;;;;;;;4.37;2.77;;;;;;;;;;4992969;28;20579;-57
2023/08/04 12:25:58;;;;;;;4.57;2.73;;;;;;;;;;4992013;28;20445;-57
2023/08/04 12:28:25;;;;;;;8.83;2.60;;;;;;;;;;4991790;28;20520;-57
2023/08/04 12:30:52;;;;;;;5.33;3.20;;;;;;;;;;4992069;28;20441;-57
2023/08/04 12:33:19;;;;;;;6.23;3.87;;;24.80;94.40;;;;;;4991565;28;20485;-55
2023/08/04 12:35:45;;;;;;;6.00;2.93;;;24.90;94.40;;;;;;4991717;28;20448;-57
2023/08/04 12:38:12;;;;;;;3.77;2.73;;;;;;;;;;4991585;28;20604;-57
2023/08/04 12:40:40;;;;;;;4.13;2.27;;;;;;;;;;4991421;28;20431;-58
2023/08/04 12:43:08;;;;;;;6.23;2.70;;;;;;;;;;4991683;28;20970;-56
2023/08/04 12:45:35;;;;;;;5.20;2.40;;;;;;;;;;4991879;28;20519;-57
2023/08/04 12:48:04;;;;;;;4.20;2.17;;;25.00;93.10;;;;;;4991769;28;20822;-56
2023/08/04 12:50:31;;;;;;;6.40;3.27;;;;;;;;;;4992330;28;20459;-56
2023/08/04 12:52:58;;;;;;;4.33;2.33;;;;;;;;;;4991943;28;20995;-58
2023/08/04 12:55:25;;;;;;;5.60;2.83;;;;;;;;;;4991762;28;20456;-56
2023/08/04 12:57:52;;;;;;;5.17;2.60;;;24.80;92.80;;;;;;4991424;28;20475;-56
2023/08/04 13:00:20;;;;;;;6.37;2.53;;;24.80;92.70;;;;;;4992803;28;20440;-56
2023/08/04 13:02:47;;;;;;;9.97;3.30;;;;;;;;;;4993015;28;20441;-56
2023/08/04 13:05:14;;;;;;;4.37;2.23;;;;;;;;;;4995430;28;20518;-56
2023/08/04 13:07:42;;;;;;;6.30;3.00;;;;;;;;;;4995137;28;20519;-57
2023/08/04 13:10:09;;;;;;;5.60;2.43;;;24.70;92.90;;;;;;4998005;28;20528;-57
2023/08/04 13:12:36;;;;;;;6.50;3.10;;;;;;;;;;4998930;28;20477;-57
2023/08/04 13:15:04;;;;;;;6.13;2.90;;;;;;;;;;4996197;28;20452;-57
2023/08/04 13:17:32;;;;;;;5.97;2.57;;;24.60;93.10;;;;;;4994976;28;20910;-56
2023/08/04 13:19:58;;;;;;;5.90;2.50;;;24.50;93.00;;;;;;4995354;28;20480;-56
2023/08/04 13:22:25;;;;;;;6.00;2.50;;;;;;;;;;4995289;28;20429;-57
2023/08/04 13:24:53;;;;;;;5.77;3.50;;;;;;;;;;4994989;28;20476;-57
2023/08/04 13:27:20;;;;;;;4.93;2.60;;;;;;;;;;4995098;28;20463;-56
2023/08/04 13:29:47;;;;;;;4.93;3.03;;;24.20;92.60;;;;;;4994902;28;20433;-56
2023/08/04 13:32:14;;;;;;;3.93;2.47;;;;;;;;;;4994128;28;20547;-57